KHMP

Henry County Airport

Hampton, Georgia, USA
METAR KHMP 202355Z AUTO 22003KT 7SM -DZ SCT004 SCT033 BKN046 22/21 A3006 RMK AO2 T02200208 10288 20220
Observed Flight Rules
Aug-20 @ 23:55 UTC (12 minutes ago) Visual Flight Rules
Wind Visibility Clouds Conditions
220° at 3 knots 7 miles
  • Scattered at 400' AGL
  • Scattered at 3,300' AGL
  • Broken at 4,600' AGL
  • Light Drizzle
Temperatures Readings
Current 22°C / 72°F
Dewpoint 21°C / 70°F
Humidity 94%
Altimeter 30.06" Hg
Pressure 1018 hPa
Elevation 269
METAR KHMP 202355Z AUTO 22003KT 7SM -DZ SCT004 SCT033 BKN046 22/21 A3006 RMK AO2 T02200208 10288 20220
Observed Flight Rules
Aug-20 @ 23:55 UTC
(12 minutes ago)
VFR
Wind Visibility
220° at 3 knots 7 miles
Clouds
  • Scattered at 400' AGL
  • Scattered at 3,300' AGL
  • Broken at 4,600' AGL
Conditions
  • Light Drizzle
Temperature Dewpoint
22°C / 72°F 21°C / 70°F
Humidity Altimeter Pressure
94% 30.06" Hg 1018 hPa